createdAt,value
2018-11-05T00:01:23.438Z,6.90
2018-11-05T00:03:50.906Z,6.90
2018-11-05T00:06:18.391Z,6.90
2018-11-05T00:08:46.613Z,7.00
2018-11-05T00:11:14.103Z,7.00
2018-11-05T00:13:41.569Z,7.00
2018-11-05T00:16:09.132Z,7.10
2018-11-05T00:18:36.592Z,7.10
2018-11-05T00:21:04.153Z,7.10
2018-11-05T00:23:31.624Z,7.00
2018-11-05T00:25:59.080Z,7.10
2018-11-05T00:28:26.554Z,7.10
2018-11-05T00:30:54.108Z,7.10
2018-11-05T00:33:21.576Z,7.10
2018-11-05T00:35:49.031Z,7.10
2018-11-05T00:38:16.507Z,7.10
2018-11-05T00:40:43.995Z,7.10
2018-11-05T00:43:12.229Z,7.00
2018-11-05T00:45:39.709Z,7.00
2018-11-05T00:48:07.157Z,7.00
2018-11-05T00:50:35.376Z,7.00
2018-11-05T00:53:04.545Z,7.00
2018-11-05T00:55:31.998Z,7.00
2018-11-05T00:57:59.482Z,6.90
2018-11-05T01:00:26.939Z,7.00
2018-11-05T01:02:54.411Z,7.00
2018-11-05T01:05:22.657Z,6.90
2018-11-05T01:07:50.120Z,6.90
2018-11-05T01:10:17.599Z,7.00
2018-11-05T01:12:45.059Z,6.90
2018-11-05T01:15:12.614Z,7.00
2018-11-05T01:17:40.072Z,7.00
2018-11-05T01:20:07.652Z,7.00
2018-11-05T01:22:35.213Z,6.90
2018-11-05T01:25:05.095Z,6.90
2018-11-05T01:27:32.594Z,6.90
2018-11-05T01:30:00.062Z,7.00
2018-11-05T01:32:27.525Z,7.00
2018-11-05T01:34:54.986Z,7.00
2018-11-05T01:37:23.983Z,7.00
2018-11-05T01:39:51.419Z,7.00
2018-11-05T01:42:18.899Z,6.90
2018-11-05T01:44:47.873Z,7.00
2018-11-05T01:47:15.357Z,7.00
2018-11-05T01:49:42.922Z,7.00
2018-11-05T01:52:11.196Z,7.00
2018-11-05T01:54:38.646Z,7.00
2018-11-05T01:57:06.228Z,7.00
2018-11-05T01:59:33.795Z,6.90
2018-11-05T02:02:01.258Z,6.90
2018-11-05T02:04:28.732Z,6.90
2018-11-05T02:06:57.688Z,7.00
2018-11-05T02:09:25.147Z,6.90
2018-11-05T02:11:52.712Z,6.90
2018-11-05T02:14:20.198Z,7.00
2018-11-05T02:16:47.662Z,7.00
2018-11-05T02:19:15.130Z,7.00
2018-11-05T02:21:42.579Z,7.10
2018-11-05T02:24:10.152Z,7.00
2018-11-05T02:26:37.606Z,7.10
2018-11-05T02:29:05.055Z,7.10
2018-11-05T02:31:32.528Z,7.10
2018-11-05T02:34:00.089Z,7.20
2018-11-05T02:36:27.556Z,7.10
2018-11-05T02:38:55.028Z,7.10
2018-11-05T02:41:24.001Z,7.10
2018-11-05T02:43:51.477Z,7.10
2018-11-05T02:46:19.234Z,7.10
2018-11-05T02:48:46.826Z,7.00
2018-11-05T02:51:14.366Z,7.00
2018-11-05T02:53:41.932Z,7.00
2018-11-05T02:56:09.387Z,7.00
2018-11-05T02:58:36.849Z,7.00
2018-11-05T03:01:04.419Z,7.00
2018-11-05T03:03:31.988Z,6.90
2018-11-05T03:05:59.442Z,6.90
2018-11-05T03:08:27.015Z,6.90
2018-11-05T03:10:54.583Z,6.80
2018-11-05T03:13:22.060Z,6.80
2018-11-05T03:15:49.529Z,6.80
2018-11-05T03:18:16.975Z,6.70
2018-11-05T03:20:44.444Z,6.70
2018-11-05T03:23:11.892Z,6.70
2018-11-05T03:25:39.364Z,6.70
2018-11-05T03:28:06.908Z,6.60
2018-11-05T03:30:34.359Z,6.60
2018-11-05T03:33:01.831Z,6.70
2018-11-05T03:35:29.396Z,6.70
2018-11-05T03:37:56.868Z,6.70
2018-11-05T03:40:24.328Z,6.70
2018-11-05T03:42:51.795Z,6.70
2018-11-05T03:45:19.348Z,6.70
2018-11-05T03:47:46.813Z,6.60
2018-11-05T03:50:14.271Z,6.70
2018-11-05T03:52:42.084Z,6.70
2018-11-05T03:55:10.308Z,6.60
2018-11-05T03:57:37.771Z,6.60
2018-11-05T04:00:05.244Z,6.60
2018-11-05T04:02:32.807Z,6.60
2018-11-05T04:05:00.386Z,6.60
2018-11-05T04:07:27.832Z,6.60
2018-11-05T04:09:55.399Z,6.60
2018-11-05T04:12:22.869Z,6.60
2018-11-05T04:14:50.343Z,6.60
2018-11-05T04:17:17.796Z,6.60
2018-11-05T04:19:46.775Z,6.50
2018-11-05T04:22:14.346Z,6.50
2018-11-05T04:24:41.910Z,6.50
2018-11-05T04:27:09.381Z,6.50
2018-11-05T04:29:36.931Z,6.50
2018-11-05T04:32:04.383Z,6.50
2018-11-05T04:34:31.861Z,6.50
2018-11-05T04:36:59.327Z,6.40
2018-11-05T04:39:26.886Z,6.50
2018-11-05T04:41:54.338Z,6.50
2018-11-05T04:44:21.807Z,6.40
2018-11-05T04:46:49.368Z,6.40
2018-11-05T04:49:16.933Z,6.40
2018-11-05T04:51:44.384Z,6.40
2018-11-05T04:54:12.163Z,6.40
2018-11-05T04:56:39.633Z,6.40
2018-11-05T04:59:07.105Z,6.40
2018-11-05T05:01:34.568Z,6.30
2018-11-05T05:04:02.044Z,6.40
2018-11-05T05:06:30.291Z,6.40
2018-11-05T05:08:57.856Z,6.40
2018-11-05T05:11:25.322Z,6.40
2018-11-05T05:13:52.781Z,6.30
2018-11-05T05:16:20.465Z,6.30
2018-11-05T05:18:47.916Z,6.30
2018-11-05T05:21:15.463Z,6.30
2018-11-05T05:23:42.930Z,6.30
2018-11-05T05:26:10.399Z,6.30
2018-11-05T05:28:37.962Z,6.30
2018-11-05T05:31:05.425Z,6.30
2018-11-05T05:33:33.029Z,6.40
2018-11-05T05:36:00.547Z,6.30
2018-11-05T05:38:28.012Z,6.40
2018-11-05T05:40:55.590Z,6.40
2018-11-05T05:43:22.946Z,6.40
2018-11-05T05:45:50.520Z,6.40
2018-11-05T05:48:18.753Z,6.50
2018-11-05T05:50:46.979Z,6.50
2018-11-05T05:53:14.445Z,6.50
2018-11-05T05:55:41.905Z,6.50
2018-11-05T05:58:10.131Z,6.50
2018-11-05T06:00:37.590Z,6.50
2018-11-05T06:03:05.094Z,6.50
2018-11-05T06:05:32.556Z,6.50
2018-11-05T06:08:00.016Z,6.50
2018-11-05T06:10:27.480Z,6.40
2018-11-05T06:12:54.947Z,6.40
2018-11-05T06:15:22.403Z,6.40
2018-11-05T06:17:49.969Z,6.40
2018-11-05T06:20:18.243Z,6.30
2018-11-05T06:22:45.696Z,6.30
2018-11-05T06:25:13.148Z,6.30
2018-11-05T06:27:40.632Z,6.30
2018-11-05T06:30:08.860Z,6.30
2018-11-05T06:32:36.317Z,6.30
2018-11-05T06:35:03.799Z,6.30
2018-11-05T06:37:31.251Z,6.20
2018-11-05T06:39:58.754Z,6.20
2018-11-05T06:42:26.219Z,6.20
2018-11-05T06:44:53.860Z,6.20
2018-11-05T06:47:21.240Z,6.20
2018-11-05T06:49:48.712Z,6.20
2018-11-05T06:52:16.171Z,6.20
2018-11-05T06:54:44.410Z,6.20
2018-11-05T06:57:11.905Z,6.20
2018-11-05T06:59:39.375Z,6.20
2018-11-05T07:02:06.840Z,6.20
2018-11-05T07:04:34.296Z,6.20
2018-11-05T07:07:01.857Z,6.20
2018-11-05T07:09:29.423Z,6.20
2018-11-05T07:11:56.983Z,6.20
2018-11-05T07:14:24.560Z,6.20
2018-11-05T07:16:52.039Z,6.20
2018-11-05T07:19:19.653Z,6.20
2018-11-05T07:21:47.739Z,6.20
2018-11-05T07:24:15.206Z,6.10
2018-11-05T07:26:42.658Z,6.20
2018-11-05T07:29:10.147Z,6.20
2018-11-05T07:31:38.372Z,6.20
2018-11-05T07:34:06.124Z,6.20
2018-11-05T07:36:33.647Z,6.30
2018-11-05T07:39:01.105Z,6.30
2018-11-05T07:41:28.563Z,6.30
2018-11-05T07:43:56.024Z,6.40
2018-11-05T07:46:23.575Z,6.50
2018-11-05T07:48:51.037Z,6.50
2018-11-05T07:51:18.499Z,6.50
2018-11-05T07:53:45.992Z,6.50
2018-11-05T07:56:13.611Z,6.60
2018-11-05T07:58:41.015Z,6.60
2018-11-05T08:01:08.572Z,6.60
2018-11-05T08:03:36.023Z,6.70
2018-11-05T08:06:04.603Z,6.80
2018-11-05T08:08:32.143Z,6.80
2018-11-05T08:10:59.531Z,6.80
2018-11-05T08:13:27.011Z,6.90
2018-11-05T08:15:54.475Z,6.90
2018-11-05T08:18:21.934Z,6.90
2018-11-05T08:20:49.405Z,7.00
2018-11-05T08:23:17.621Z,7.10
2018-11-05T08:25:45.742Z,7.10
2018-11-05T08:28:13.317Z,7.10
2018-11-05T08:30:41.547Z,7.10
2018-11-05T08:33:09.013Z,7.10
2018-11-05T08:35:36.479Z,7.20
2018-11-05T08:38:03.979Z,7.10
2018-11-05T08:40:31.447Z,7.30
2018-11-05T08:42:58.908Z,7.30
2018-11-05T08:45:26.380Z,7.30
2018-11-05T08:47:53.919Z,7.40
2018-11-05T08:50:21.556Z,7.40
2018-11-05T08:52:49.060Z,7.50
2018-11-05T08:55:16.615Z,7.50
2018-11-05T08:57:44.130Z,7.50
2018-11-05T09:00:11.561Z,7.60
2018-11-05T09:02:39.102Z,7.70
2018-11-05T09:05:06.599Z,7.80
2018-11-05T09:07:34.034Z,7.90
2018-11-05T09:10:01.613Z,8.00
2018-11-05T09:12:29.059Z,8.00
2018-11-05T09:14:56.583Z,8.10
2018-11-05T09:17:24.052Z,8.20
2018-11-05T09:19:51.507Z,8.20
2018-11-05T09:22:18.976Z,8.30
2018-11-05T09:24:46.470Z,8.30
2018-11-05T09:27:15.443Z,8.30
2018-11-05T09:29:43.068Z,8.30
2018-11-05T09:32:11.299Z,8.40
2018-11-05T09:34:38.878Z,8.40
2018-11-05T09:37:06.339Z,8.60
2018-11-05T09:39:33.791Z,8.60
2018-11-05T09:42:01.361Z,8.70
2018-11-05T09:44:28.919Z,8.70
2018-11-05T09:46:56.392Z,8.90
2018-11-05T09:49:23.960Z,8.90
2018-11-05T09:51:51.425Z,9.10
2018-11-05T09:54:18.971Z,9.20
2018-11-05T09:56:46.548Z,9.20
2018-11-05T09:59:14.015Z,9.10
2018-11-05T10:01:41.479Z,9.10
2018-11-05T10:04:08.971Z,9.00
2018-11-05T10:06:37.173Z,9.10
2018-11-05T10:09:04.685Z,9.10
2018-11-05T10:11:32.199Z,9.20
2018-11-05T10:13:59.671Z,9.20
2018-11-05T10:16:27.210Z,9.20
2018-11-05T10:18:54.621Z,9.30
2018-11-05T10:21:22.076Z,9.40
2018-11-05T10:23:49.539Z,9.40
2018-11-05T10:26:17.035Z,9.40
2018-11-05T10:28:44.470Z,9.40
2018-11-05T10:31:11.934Z,9.40
2018-11-05T10:33:39.503Z,9.50
2018-11-05T10:36:07.780Z,9.50
2018-11-05T10:38:35.284Z,9.50
2018-11-05T10:41:04.404Z,9.60
2018-11-05T10:43:31.856Z,9.50
2018-11-05T10:45:59.397Z,9.60
2018-11-05T10:48:27.636Z,9.60
2018-11-05T10:50:55.135Z,9.60
2018-11-05T10:53:23.393Z,9.60
2018-11-05T10:55:50.839Z,9.60
2018-11-05T10:58:18.353Z,9.60
2018-11-05T11:00:45.776Z,9.60
2018-11-05T11:03:13.235Z,9.60
2018-11-05T11:05:40.700Z,9.60
2018-11-05T11:08:08.250Z,9.70
2018-11-05T11:10:35.702Z,9.70
2018-11-05T11:13:04.712Z,9.70
2018-11-05T11:15:32.185Z,9.70
2018-11-05T11:18:00.418Z,9.60
2018-11-05T11:20:27.913Z,9.60
2018-11-05T11:22:55.378Z,9.60
2018-11-05T11:25:23.609Z,9.60
2018-11-05T11:27:51.275Z,9.60
2018-11-05T11:30:18.604Z,9.60
2018-11-05T11:32:46.049Z,9.60
2018-11-05T11:35:13.601Z,9.60
2018-11-05T11:37:41.091Z,9.60
2018-11-05T11:40:09.344Z,9.70
2018-11-05T11:42:36.908Z,9.70
2018-11-05T11:45:04.622Z,9.70
2018-11-05T11:47:32.711Z,9.70
2018-11-05T11:50:00.217Z,9.60
2018-11-05T11:52:27.732Z,9.60
2018-11-05T11:54:55.246Z,9.60
2018-11-05T11:57:22.700Z,9.60
2018-11-05T11:59:50.172Z,9.60
2018-11-05T12:02:17.839Z,9.50
2018-11-05T12:04:45.211Z,9.70
2018-11-05T12:07:12.714Z,9.80
2018-11-05T12:09:40.172Z,9.70
2018-11-05T12:12:07.976Z,9.70
2018-11-05T12:14:35.537Z,9.70
2018-11-05T12:17:04.429Z,9.50
2018-11-05T12:19:31.914Z,9.50
2018-11-05T12:21:59.375Z,9.60
2018-11-05T12:24:26.941Z,9.50
2018-11-05T12:26:55.903Z,9.60
2018-11-05T12:29:23.359Z,9.60
2018-11-05T12:31:50.815Z,9.60
2018-11-05T12:34:18.271Z,9.70
2018-11-05T12:36:45.784Z,9.80
2018-11-05T12:39:13.973Z,9.80
2018-11-05T12:41:41.430Z,9.80
2018-11-05T12:44:08.980Z,9.80
2018-11-05T12:46:36.443Z,9.80
2018-11-05T12:49:03.900Z,9.90
2018-11-05T12:51:31.359Z,9.90
2018-11-05T12:53:58.829Z,9.90
2018-11-05T12:56:26.282Z,9.90
2018-11-05T12:58:53.764Z,9.90
2018-11-05T13:01:21.230Z,9.90
2018-11-05T13:03:48.687Z,9.80
2018-11-05T13:06:16.240Z,9.90
2018-11-05T13:08:43.806Z,9.80
2018-11-05T13:11:11.260Z,9.80
2018-11-05T13:13:38.727Z,9.80
2018-11-05T13:16:06.201Z,9.80
2018-11-05T13:18:33.760Z,10.00
2018-11-05T13:21:01.224Z,9.90
2018-11-05T13:23:28.691Z,10.00
2018-11-05T13:25:57.655Z,10.00
2018-11-05T13:28:25.314Z,10.00
2018-11-05T13:30:52.801Z,10.00
2018-11-05T13:33:20.260Z,10.10
2018-11-05T13:35:47.833Z,10.20
2018-11-05T13:38:15.874Z,10.20
2018-11-05T13:40:42.785Z,10.20
2018-11-05T13:43:11.035Z,10.20
2018-11-05T13:45:38.712Z,10.10
2018-11-05T13:48:06.366Z,10.20
2018-11-05T13:50:33.430Z,10.20
2018-11-05T13:53:00.931Z,10.20
2018-11-05T13:55:28.401Z,10.20
2018-11-05T13:57:55.868Z,10.30
2018-11-05T14:00:23.673Z,10.20
2018-11-05T14:02:51.144Z,10.20
2018-11-05T14:05:19.365Z,10.20
2018-11-05T14:07:46.869Z,10.20
2018-11-05T14:10:14.343Z,10.20
2018-11-05T14:12:41.931Z,10.30
2018-11-05T14:15:09.389Z,10.30
2018-11-05T14:17:37.619Z,10.30
2018-11-05T14:20:05.088Z,10.30
2018-11-05T14:22:32.561Z,10.30
2018-11-05T14:25:00.142Z,10.30
2018-11-05T14:27:27.795Z,10.20
2018-11-05T14:29:55.496Z,10.20
2018-11-05T14:32:22.639Z,10.20
2018-11-05T14:34:50.863Z,10.20
2018-11-05T14:37:18.321Z,10.20
2018-11-05T14:39:45.793Z,10.20
2018-11-05T14:42:13.251Z,10.20
2018-11-05T14:44:40.717Z,10.20
2018-11-05T14:47:08.216Z,10.20
2018-11-05T14:49:35.772Z,10.20
2018-11-05T14:52:04.763Z,10.20
2018-11-05T14:54:32.238Z,10.20
2018-11-05T14:56:59.714Z,10.20
2018-11-05T14:59:27.252Z,10.10
2018-11-05T15:01:54.725Z,10.10
2018-11-05T15:04:22.193Z,10.10
2018-11-05T15:06:49.660Z,10.10
2018-11-05T15:09:17.419Z,10.00
2018-11-05T15:11:44.868Z,10.00
2018-11-05T15:14:12.449Z,10.00
2018-11-05T15:16:39.929Z,10.00
2018-11-05T15:19:08.414Z,10.00
2018-11-05T15:21:35.655Z,9.90
2018-11-05T15:24:04.627Z,10.00
2018-11-05T15:26:32.230Z,9.90
2018-11-05T15:28:59.664Z,10.00
2018-11-05T15:31:27.141Z,10.00
2018-11-05T15:33:55.468Z,10.00
2018-11-05T15:36:24.407Z,10.00
2018-11-05T15:38:51.889Z,10.00
2018-11-05T15:41:19.343Z,9.90
2018-11-05T15:43:46.799Z,9.90
2018-11-05T15:46:15.803Z,9.90
2018-11-05T15:48:43.268Z,9.90
2018-11-05T15:51:10.983Z,9.90
2018-11-05T15:53:38.477Z,9.90
2018-11-05T15:56:05.845Z,9.90
2018-11-05T15:58:33.304Z,9.90
2018-11-05T16:01:00.768Z,10.00
2018-11-05T16:03:28.243Z,10.00
2018-11-05T16:05:55.795Z,10.00
2018-11-05T16:08:23.351Z,10.00
2018-11-05T16:10:50.926Z,10.00
2018-11-05T16:13:18.391Z,9.90
2018-11-05T16:15:45.864Z,9.90
2018-11-05T16:18:14.100Z,9.90
2018-11-05T16:20:41.589Z,9.80
2018-11-05T16:23:09.057Z,9.90
2018-11-05T16:25:36.661Z,9.90
2018-11-05T16:28:04.179Z,9.80
2018-11-05T16:30:31.697Z,9.80
2018-11-05T16:32:59.915Z,9.80
2018-11-05T16:35:27.385Z,9.80
2018-11-05T16:37:54.835Z,9.80
2018-11-05T16:40:22.291Z,9.80
2018-11-05T16:42:49.758Z,9.80
2018-11-05T16:45:17.217Z,9.80
2018-11-05T16:47:44.688Z,9.70
2018-11-05T16:50:12.167Z,9.70
2018-11-05T16:52:39.715Z,9.80
2018-11-05T16:55:07.203Z,9.70
2018-11-05T16:57:34.728Z,9.70
2018-11-05T17:00:02.133Z,9.80
2018-11-05T17:02:30.568Z,9.70
2018-11-05T17:04:57.935Z,9.70
2018-11-05T17:07:26.156Z,9.70
2018-11-05T17:09:54.415Z,9.70
2018-11-05T17:12:21.888Z,9.70
2018-11-05T17:14:50.156Z,9.60
2018-11-05T17:17:19.138Z,9.60
2018-11-05T17:19:46.589Z,9.60
2018-11-05T17:22:14.070Z,9.60
2018-11-05T17:24:41.529Z,9.60
2018-11-05T17:27:08.993Z,9.60
2018-11-05T17:29:37.223Z,9.50
2018-11-05T17:32:04.735Z,9.50
2018-11-05T17:34:32.254Z,9.50
2018-11-05T17:36:59.711Z,9.50
2018-11-05T17:39:27.216Z,9.50
2018-11-05T17:41:54.688Z,9.50
2018-11-05T17:44:22.150Z,9.50
2018-11-05T17:46:49.709Z,9.50
2018-11-05T17:49:17.175Z,9.50
2018-11-05T17:51:44.636Z,9.50
2018-11-05T17:54:12.119Z,9.50
2018-11-05T17:56:40.376Z,9.50
2018-11-05T17:59:07.836Z,9.40
2018-11-05T18:01:35.314Z,9.50
2018-11-05T18:04:03.724Z,9.50
2018-11-05T18:06:32.664Z,9.40
2018-11-05T18:09:00.286Z,9.40
2018-11-05T18:11:28.488Z,9.40
2018-11-05T18:13:55.948Z,9.40
2018-11-05T18:16:23.403Z,9.40
2018-11-05T18:18:50.885Z,9.50
2018-11-05T18:21:18.344Z,9.40
2018-11-05T18:23:45.823Z,9.40
2018-11-05T18:26:13.392Z,9.40
2018-11-05T18:28:40.857Z,9.40
2018-11-05T18:31:09.928Z,9.40
2018-11-05T18:33:37.313Z,9.40
2018-11-05T18:36:04.877Z,9.40
2018-11-05T18:38:32.345Z,9.40
2018-11-05T18:40:59.800Z,9.30
2018-11-05T18:43:27.274Z,9.20
2018-11-05T18:45:54.841Z,9.20
2018-11-05T18:48:22.299Z,9.10
2018-11-05T18:50:50.571Z,9.00
2018-11-05T18:53:18.045Z,9.00
2018-11-05T18:55:45.604Z,9.00
2018-11-05T18:58:13.160Z,9.00
2018-11-05T19:00:40.627Z,8.90
2018-11-05T19:03:08.219Z,8.90
2018-11-05T19:05:35.632Z,8.90
2018-11-05T19:08:04.638Z,8.90
2018-11-05T19:10:32.104Z,8.90
2018-11-05T19:12:59.573Z,8.90
2018-11-05T19:15:27.047Z,8.80
2018-11-05T19:17:54.609Z,8.80
2018-11-05T19:20:22.071Z,8.70
2018-11-05T19:22:51.182Z,8.70
2018-11-05T19:25:18.536Z,8.70
2018-11-05T19:27:46.782Z,8.70
2018-11-05T19:30:14.277Z,8.70
2018-11-05T19:32:41.708Z,8.70
2018-11-05T19:35:09.182Z,8.70
2018-11-05T19:37:36.649Z,8.60
2018-11-05T19:40:04.104Z,8.50
2018-11-05T19:42:31.864Z,8.50
2018-11-05T19:44:59.235Z,8.60
2018-11-05T19:47:26.692Z,8.50
2018-11-05T19:49:54.257Z,8.50
2018-11-05T19:52:21.821Z,8.50
2018-11-05T19:54:49.388Z,8.50
2018-11-05T19:57:16.852Z,8.50
2018-11-05T19:59:44.299Z,8.50
2018-11-05T20:02:12.065Z,8.50
2018-11-05T20:04:39.543Z,8.50
2018-11-05T20:07:07.116Z,8.40
2018-11-05T20:09:34.581Z,8.50
2018-11-05T20:12:02.039Z,8.50
2018-11-05T20:14:29.516Z,8.50
2018-11-05T20:16:57.167Z,8.40
2018-11-05T20:19:24.621Z,8.50
2018-11-05T20:21:53.624Z,8.40
2018-11-05T20:24:21.941Z,8.40
2018-11-05T20:26:49.419Z,8.40
2018-11-05T20:29:16.881Z,8.40
2018-11-05T20:31:44.612Z,8.40
2018-11-05T20:34:12.478Z,8.40
2018-11-05T20:36:39.592Z,8.40
2018-11-05T20:39:07.051Z,8.40
2018-11-05T20:41:34.516Z,8.40
2018-11-05T20:44:01.980Z,8.40
2018-11-05T20:46:29.603Z,8.40
2018-11-05T20:48:57.030Z,8.30
2018-11-05T20:51:24.513Z,8.30
2018-11-05T20:53:52.777Z,8.30
2018-11-05T20:56:20.205Z,8.30
2018-11-05T20:58:47.706Z,8.30
2018-11-05T21:01:15.175Z,8.30
2018-11-05T21:03:42.647Z,8.30
2018-11-05T21:06:10.719Z,8.30
2018-11-05T21:08:38.180Z,8.30
2018-11-05T21:11:05.671Z,8.20
2018-11-05T21:13:33.162Z,8.20
2018-11-05T21:16:00.648Z,8.20
2018-11-05T21:18:28.115Z,8.20
2018-11-05T21:20:57.170Z,8.20
2018-11-05T21:23:24.873Z,8.20
2018-11-05T21:25:52.331Z,8.10
2018-11-05T21:28:19.783Z,8.10
2018-11-05T21:30:47.258Z,8.20
2018-11-05T21:33:14.828Z,8.20
2018-11-05T21:35:42.362Z,8.20
2018-11-05T21:38:09.833Z,8.20
2018-11-05T21:40:37.343Z,8.20
2018-11-05T21:43:04.874Z,8.20
2018-11-05T21:45:32.460Z,8.20
2018-11-05T21:47:59.913Z,8.20
2018-11-05T21:50:28.156Z,8.20
2018-11-05T21:52:55.618Z,8.20
2018-11-05T21:55:23.104Z,8.20
2018-11-05T21:57:50.567Z,8.20
2018-11-05T22:00:18.838Z,8.20
2018-11-05T22:02:46.312Z,8.20
2018-11-05T22:05:13.771Z,8.20
2018-11-05T22:07:41.231Z,8.20
2018-11-05T22:10:08.698Z,8.20
2018-11-05T22:12:36.262Z,8.20
2018-11-05T22:15:03.717Z,8.20
2018-11-05T22:17:31.197Z,8.20
2018-11-05T22:19:58.667Z,8.20
2018-11-05T22:22:26.957Z,8.20
2018-11-05T22:24:54.400Z,8.20
2018-11-05T22:27:21.952Z,8.20
2018-11-05T22:29:49.573Z,8.10
2018-11-05T22:32:17.020Z,8.10
2018-11-05T22:34:44.488Z,8.10
2018-11-05T22:37:11.996Z,8.10
2018-11-05T22:39:40.181Z,8.10
2018-11-05T22:42:07.658Z,8.00
2018-11-05T22:44:35.113Z,8.00
2018-11-05T22:47:02.612Z,8.00
2018-11-05T22:49:30.133Z,8.00
2018-11-05T22:51:57.587Z,8.00
2018-11-05T22:54:25.047Z,8.00
2018-11-05T22:56:52.618Z,7.90
2018-11-05T22:59:20.137Z,7.90
2018-11-05T23:01:47.592Z,7.90
2018-11-05T23:04:15.105Z,7.90
2018-11-05T23:06:42.567Z,7.80
2018-11-05T23:09:10.040Z,7.80
2018-11-05T23:11:37.593Z,7.80
2018-11-05T23:14:05.062Z,7.80
2018-11-05T23:16:32.625Z,7.70
2018-11-05T23:19:00.083Z,7.70
2018-11-05T23:21:27.554Z,7.70
2018-11-05T23:23:55.108Z,7.70
2018-11-05T23:26:22.570Z,7.70
2018-11-05T23:28:50.039Z,7.70
2018-11-05T23:31:17.513Z,7.70
2018-11-05T23:33:45.053Z,7.70
2018-11-05T23:36:12.521Z,7.70
2018-11-05T23:38:39.984Z,7.70
2018-11-05T23:41:07.449Z,7.70
2018-11-05T23:43:35.737Z,7.70
2018-11-05T23:46:04.393Z,7.70
2018-11-05T23:48:31.883Z,7.60
2018-11-05T23:50:59.341Z,7.60
2018-11-05T23:53:26.902Z,7.60
2018-11-05T23:55:54.375Z,7.60
2018-11-05T23:58:21.835Z,7.60
